createdAt,value
2022-11-02T00:01:22.767Z,1.55
2022-11-02T00:03:55.772Z,1.40
2022-11-02T00:06:30.078Z,1.30
2022-11-02T00:09:03.211Z,1.40
2022-11-02T00:11:37.438Z,1.58
2022-11-02T00:14:10.136Z,1.63
2022-11-02T00:16:43.361Z,1.83
2022-11-02T00:19:16.265Z,1.40
2022-11-02T00:21:50.614Z,1.27
2022-11-02T00:24:23.662Z,1.65
2022-11-02T00:29:33.669Z,1.25
2022-11-02T00:32:06.985Z,1.25
2022-11-02T00:37:13.931Z,1.15
2022-11-02T00:39:46.681Z,1.38
2022-11-02T00:42:19.492Z,0.93
2022-11-02T00:44:52.362Z,1.40
2022-11-02T00:47:25.927Z,1.17
2022-11-02T00:49:59.669Z,1.85
2022-11-02T00:52:34.719Z,1.30
2022-11-02T00:55:08.934Z,1.10
2022-11-02T00:57:42.108Z,1.13
2022-11-02T01:00:17.313Z,1.13
2022-11-02T01:02:50.940Z,1.67
2022-11-02T01:05:23.888Z,1.05
2022-11-02T01:07:58.130Z,1.17
2022-11-02T01:10:32.745Z,1.10
2022-11-02T01:13:06.418Z,0.95
2022-11-02T01:15:39.111Z,1.42
2022-11-02T01:18:11.946Z,1.65
2022-11-02T01:20:44.746Z,2.33
2022-11-02T01:23:19.667Z,1.33
2022-11-02T01:25:52.584Z,1.92
2022-11-02T01:28:28.259Z,1.65
2022-11-02T01:31:01.268Z,1.88
2022-11-02T01:33:34.950Z,2.03
2022-11-02T01:36:09.392Z,2.55
2022-11-02T01:38:43.680Z,1.20
2022-11-02T01:41:16.673Z,1.42
2022-11-02T01:43:52.578Z,1.58
2022-11-02T01:46:38.130Z,1.30
2022-11-02T01:49:15.615Z,1.52
2022-11-02T01:51:52.488Z,1.23
2022-11-02T01:54:30.475Z,1.15
2022-11-02T01:57:05.997Z,1.95
2022-11-02T01:59:45.822Z,1.83
2022-11-02T02:02:22.645Z,1.85
2022-11-02T02:05:01.179Z,1.33
2022-11-02T02:07:42.018Z,1.50
2022-11-02T02:10:16.403Z,1.83
2022-11-02T02:12:49.413Z,1.83
2022-11-02T02:15:36.246Z,1.10
2022-11-02T02:18:17.908Z,1.45
2022-11-02T02:21:06.838Z,1.45
2022-11-02T02:24:05.545Z,1.52
2022-11-02T02:27:02.030Z,2.00
2022-11-02T02:29:47.839Z,1.35
2022-11-02T02:32:29.586Z,1.98
2022-11-02T02:35:15.079Z,1.48
2022-11-02T02:37:55.377Z,1.98
2022-11-02T02:40:36.609Z,1.42
2022-11-02T02:43:13.490Z,1.80
2022-11-02T02:45:53.478Z,1.50
2022-11-02T02:48:27.901Z,1.90
2022-11-02T02:51:05.237Z,1.83
2022-11-02T02:53:43.202Z,1.73
2022-11-02T02:56:19.934Z,1.90
2022-11-02T02:58:59.356Z,2.28
2022-11-02T03:01:35.938Z,1.92
2022-11-02T03:04:11.179Z,1.90
2022-11-02T03:06:49.138Z,2.03
2022-11-02T03:09:33.066Z,2.53
2022-11-02T03:12:22.802Z,2.30
2022-11-02T03:15:10.440Z,1.85
2022-11-02T03:17:58.820Z,2.80
2022-11-02T03:20:41.964Z,2.97
2022-11-02T03:23:21.240Z,2.47
2022-11-02T03:26:04.407Z,2.28
2022-11-02T03:28:53.014Z,2.25
2022-11-02T03:31:36.178Z,2.83
2022-11-02T03:34:25.472Z,2.88
2022-11-02T03:37:04.779Z,2.92
2022-11-02T03:39:42.162Z,2.35
2022-11-02T03:42:19.977Z,2.63
2022-11-02T03:45:01.029Z,2.63
2022-11-02T03:47:37.570Z,2.17
2022-11-02T03:50:21.032Z,2.75
2022-11-02T03:53:01.250Z,2.65
2022-11-02T03:55:38.903Z,2.40
2022-11-02T03:58:15.136Z,2.80
2022-11-02T04:00:52.904Z,2.10
2022-11-02T04:03:25.919Z,2.67
2022-11-02T04:06:01.482Z,2.95
2022-11-02T04:08:40.917Z,2.45
2022-11-02T04:11:33.960Z,3.42
2022-11-02T04:14:39.842Z,3.28
2022-11-02T04:17:40.052Z,1.92
2022-11-02T04:20:17.793Z,2.72
2022-11-02T04:25:42.234Z,2.25
2022-11-02T04:28:20.516Z,2.42
2022-11-02T04:30:59.153Z,2.03
2022-11-02T04:33:33.624Z,2.03
2022-11-02T04:36:15.761Z,2.65
2022-11-02T04:38:51.862Z,2.75
2022-11-02T04:41:46.465Z,2.35
2022-11-02T04:44:27.919Z,2.00
2022-11-02T04:47:11.527Z,2.78
2022-11-02T04:49:44.303Z,2.50
2022-11-02T04:52:21.409Z,2.47
2022-11-02T04:54:58.227Z,2.17
2022-11-02T04:57:31.518Z,2.35
2022-11-02T05:00:07.798Z,2.13
2022-11-02T05:02:40.886Z,2.00
2022-11-02T05:05:14.095Z,1.70
2022-11-02T05:07:47.810Z,2.65
2022-11-02T05:10:22.064Z,2.28
2022-11-02T05:12:58.433Z,2.58
2022-11-02T05:15:34.300Z,1.48
2022-11-02T05:18:16.140Z,1.80
2022-11-02T05:20:52.503Z,1.60
2022-11-02T05:23:26.797Z,2.00
2022-11-02T05:26:02.347Z,1.77
2022-11-02T05:28:37.300Z,1.77
2022-11-02T05:31:11.159Z,2.33
2022-11-02T05:33:44.583Z,1.90
2022-11-02T05:36:21.785Z,1.55
2022-11-02T05:38:57.294Z,2.28
2022-11-02T05:41:44.138Z,2.10
2022-11-02T05:44:17.426Z,2.03
2022-11-02T05:46:50.944Z,1.95
2022-11-02T05:49:23.659Z,2.15
2022-11-02T05:51:56.410Z,2.22
2022-11-02T05:54:29.873Z,2.22
2022-11-02T05:57:04.108Z,1.58
2022-11-02T05:59:36.913Z,1.65
2022-11-02T06:02:09.727Z,1.30
2022-11-02T06:04:42.559Z,1.67
2022-11-02T06:07:15.361Z,1.52
2022-11-02T06:09:48.534Z,2.13
2022-11-02T06:14:55.923Z,1.92
2022-11-02T06:20:01.251Z,2.35
2022-11-02T06:22:40.229Z,1.98
2022-11-02T06:25:13.898Z,2.10
2022-11-02T06:27:55.060Z,2.13
2022-11-02T06:30:29.968Z,1.80
2022-11-02T06:33:07.016Z,1.85
2022-11-02T06:35:40.410Z,2.50
2022-11-02T06:40:54.511Z,2.33
2022-11-02T06:43:28.989Z,2.65
2022-11-02T06:46:02.803Z,2.38
2022-11-02T06:48:36.258Z,2.03
2022-11-02T06:51:09.262Z,2.75
2022-11-02T06:56:15.426Z,2.03
2022-11-02T06:58:49.501Z,2.33
2022-11-02T07:01:22.436Z,2.17
2022-11-02T07:06:28.134Z,1.88
2022-11-02T07:11:33.367Z,2.03
2022-11-02T07:14:07.665Z,1.80
2022-11-02T07:16:40.585Z,2.20
2022-11-02T07:19:13.298Z,2.13
2022-11-02T07:21:47.765Z,1.58
2022-11-02T07:24:20.837Z,1.85
2022-11-02T07:26:53.521Z,1.75
2022-11-02T07:29:27.659Z,2.30
2022-11-02T07:32:00.266Z,1.75
2022-11-02T07:34:32.916Z,1.92
2022-11-02T07:37:05.777Z,1.90
2022-11-02T07:39:38.612Z,2.00
2022-11-02T07:42:11.322Z,1.80
2022-11-02T07:44:45.320Z,2.17
2022-11-02T07:47:18.877Z,2.47
2022-11-02T07:49:51.624Z,1.85
2022-11-02T07:52:24.298Z,2.28
2022-11-02T07:54:57.139Z,1.50
2022-11-02T07:57:30.454Z,2.08
2022-11-02T08:00:05.525Z,1.70
2022-11-02T08:02:44.299Z,1.83
2022-11-02T08:05:17.259Z,2.05
2022-11-02T08:07:57.596Z,2.03
2022-11-02T08:10:35.447Z,1.90
2022-11-02T08:13:13.618Z,1.60
2022-11-02T08:15:50.315Z,1.90
2022-11-02T08:18:24.451Z,1.48
2022-11-02T08:20:58.420Z,1.70
2022-11-02T08:23:31.317Z,1.50
2022-11-02T08:26:04.037Z,1.50
2022-11-02T08:28:40.078Z,1.75
2022-11-02T08:31:16.537Z,1.95
2022-11-02T08:33:49.246Z,1.98
2022-11-02T08:36:21.927Z,2.80
2022-11-02T08:38:54.690Z,2.72
2022-11-02T08:41:27.388Z,1.83
2022-11-02T08:44:00.369Z,1.63
2022-11-02T08:46:34.413Z,2.00
2022-11-02T08:49:07.486Z,2.15
2022-11-02T08:54:12.795Z,1.17
2022-11-02T08:56:45.515Z,2.30
2022-11-02T08:59:19.499Z,1.60
2022-11-02T09:01:53.634Z,2.30
2022-11-02T09:04:26.653Z,1.90
2022-11-02T09:06:59.574Z,1.45
2022-11-02T09:09:32.448Z,2.35
2022-11-02T09:12:05.683Z,2.70
2022-11-02T09:14:38.934Z,2.78
2022-11-02T09:17:13.073Z,2.30
2022-11-02T09:19:45.808Z,1.73
2022-11-02T09:22:18.516Z,2.00
2022-11-02T09:24:51.526Z,3.03
2022-11-02T09:29:56.929Z,2.87
2022-11-02T09:32:33.387Z,2.50
2022-11-02T09:35:08.930Z,2.13
2022-11-02T09:37:49.982Z,2.47
2022-11-02T09:40:26.066Z,2.53
2022-11-02T09:43:07.223Z,2.88
2022-11-02T09:45:54.088Z,2.53
2022-11-02T09:48:33.946Z,2.30
2022-11-02T09:51:11.896Z,1.80
2022-11-02T09:53:56.040Z,1.73
2022-11-02T09:56:30.923Z,2.20
2022-11-02T09:59:06.888Z,1.88
2022-11-02T10:01:55.922Z,2.25
2022-11-02T10:05:01.856Z,1.70
2022-11-02T10:07:59.542Z,1.67
2022-11-02T10:10:38.001Z,1.90
2022-11-02T10:13:23.835Z,1.95
2022-11-02T10:16:01.293Z,2.20
2022-11-02T10:18:36.621Z,2.20
2022-11-02T10:21:14.625Z,2.25
2022-11-02T10:23:52.338Z,1.92
2022-11-02T10:26:28.349Z,1.98
2022-11-02T10:29:16.761Z,2.92
2022-11-02T10:31:49.632Z,1.60
2022-11-02T10:34:27.170Z,2.47
2022-11-02T10:37:16.393Z,1.65
2022-11-02T10:39:57.571Z,1.77
2022-11-02T10:42:44.844Z,2.83
2022-11-02T10:45:38.953Z,1.90
2022-11-02T10:48:20.929Z,2.25
2022-11-02T10:51:01.559Z,2.20
2022-11-02T10:53:41.610Z,2.38
2022-11-02T10:56:22.201Z,1.98
2022-11-02T10:59:03.239Z,2.75
2022-11-02T11:01:36.081Z,2.10
2022-11-02T11:04:22.229Z,2.65
2022-11-02T11:06:56.583Z,2.85
2022-11-02T11:09:41.697Z,1.92
2022-11-02T11:12:22.488Z,1.75
2022-11-02T11:20:45.370Z,2.35
2022-11-02T11:23:22.238Z,2.00
2022-11-02T11:25:58.831Z,2.08
2022-11-02T11:28:34.157Z,2.30
2022-11-02T11:31:15.496Z,1.60
2022-11-02T11:33:51.532Z,2.08
2022-11-02T11:36:30.554Z,2.42
2022-11-02T11:39:05.805Z,2.10
2022-11-02T11:41:41.791Z,2.25
2022-11-02T11:44:16.561Z,2.45
2022-11-02T11:46:54.438Z,2.42
2022-11-02T11:50:02.836Z,2.35
2022-11-02T11:52:32.043Z,2.20
2022-11-02T11:55:22.105Z,2.75
2022-11-02T11:58:15.180Z,2.13
2022-11-02T12:01:10.218Z,2.72
2022-11-02T12:03:54.156Z,2.03
2022-11-02T12:09:08.026Z,3.30
2022-11-02T12:11:54.902Z,2.08
2022-11-02T12:14:42.528Z,3.45
2022-11-02T12:17:41.540Z,2.13
2022-11-02T12:20:29.125Z,2.60
2022-11-02T12:23:09.536Z,2.40
2022-11-02T12:25:51.402Z,2.47
2022-11-02T12:28:39.875Z,2.30
2022-11-02T12:31:25.879Z,2.85
2022-11-02T12:34:19.841Z,2.30
2022-11-02T12:40:14.569Z,1.98
2022-11-02T12:42:54.172Z,3.40
2022-11-02T12:45:37.291Z,3.55
2022-11-02T12:48:20.245Z,3.47
2022-11-02T12:50:59.833Z,2.72
2022-11-02T12:53:44.355Z,2.08
2022-11-02T12:56:22.058Z,2.92
2022-11-02T12:58:56.567Z,3.30
2022-11-02T13:01:35.894Z,2.88
2022-11-02T13:04:18.347Z,4.00
2022-11-02T13:06:54.037Z,2.87
2022-11-02T13:09:31.509Z,2.95
2022-11-02T13:12:09.405Z,3.28
2022-11-02T13:14:46.767Z,2.50
2022-11-02T13:17:23.467Z,2.85
2022-11-02T13:20:01.630Z,3.10
2022-11-02T13:22:39.388Z,3.45
2022-11-02T13:25:17.425Z,2.65
2022-11-02T13:27:54.202Z,3.92
2022-11-02T13:30:28.446Z,2.58
2022-11-02T13:33:05.347Z,3.90
2022-11-02T13:35:40.911Z,3.05
2022-11-02T13:38:30.127Z,2.95
2022-11-02T13:41:19.119Z,3.50
2022-11-02T13:44:24.661Z,4.00
2022-11-02T13:47:12.927Z,3.10
2022-11-02T13:49:51.342Z,3.42
2022-11-02T13:52:35.265Z,3.35
2022-11-02T13:55:10.753Z,2.60
2022-11-02T13:57:47.203Z,2.67
2022-11-02T14:00:32.938Z,3.08
2022-11-02T14:03:14.539Z,3.40
2022-11-02T14:05:51.835Z,3.25
2022-11-02T14:08:35.557Z,3.22
2022-11-02T14:11:25.549Z,3.42
2022-11-02T14:14:22.911Z,2.92
2022-11-02T14:17:13.523Z,2.80
2022-11-02T14:19:55.433Z,3.22
2022-11-02T14:22:31.099Z,3.25
2022-11-02T14:25:26.237Z,3.35
2022-11-02T14:28:02.303Z,3.97
2022-11-02T14:30:48.934Z,2.75
2022-11-02T14:33:53.545Z,2.83
2022-11-02T14:36:42.314Z,2.75
2022-11-02T14:39:24.648Z,3.03
2022-11-02T14:42:13.588Z,3.13
2022-11-02T14:45:22.019Z,3.40
2022-11-02T14:47:59.195Z,2.70
2022-11-02T14:50:32.986Z,2.05
2022-11-02T14:53:09.508Z,2.47
2022-11-02T14:55:43.367Z,3.30
2022-11-02T14:58:20.179Z,3.05
2022-11-02T15:00:59.259Z,2.67
2022-11-02T15:03:36.533Z,2.90
2022-11-02T15:06:18.900Z,2.88
2022-11-02T15:08:55.915Z,2.40
2022-11-02T15:11:45.183Z,2.58
2022-11-02T15:14:54.915Z,3.58
2022-11-02T15:17:53.658Z,2.88
2022-11-02T15:20:32.115Z,3.28
2022-11-02T15:23:29.499Z,3.10
2022-11-02T15:26:07.231Z,2.80
2022-11-02T15:28:40.199Z,2.47
2022-11-02T15:34:00.633Z,2.20
2022-11-02T15:36:37.344Z,3.08
2022-11-02T15:39:12.585Z,3.10
2022-11-02T15:41:46.739Z,3.15
2022-11-02T15:44:42.870Z,3.13
2022-11-02T15:47:28.059Z,3.05
2022-11-02T15:50:31.101Z,2.85
2022-11-02T15:53:23.402Z,2.90
2022-11-02T15:56:14.389Z,2.33
2022-11-02T15:59:06.268Z,2.17
2022-11-02T16:01:40.676Z,2.58
2022-11-02T16:04:22.913Z,1.88
2022-11-02T16:06:56.548Z,2.30
2022-11-02T16:09:34.949Z,3.28
2022-11-02T16:12:13.266Z,2.33
2022-11-02T16:14:54.035Z,3.10
2022-11-02T16:17:29.181Z,2.00
2022-11-02T16:20:19.199Z,1.80
2022-11-02T16:22:55.865Z,2.10
2022-11-02T16:25:40.003Z,3.28
2022-11-02T16:28:22.034Z,1.92
2022-11-02T16:31:15.662Z,2.47
2022-11-02T16:33:52.335Z,2.70
2022-11-02T16:36:28.444Z,2.33
2022-11-02T16:39:03.508Z,2.20
2022-11-02T16:41:37.430Z,2.60
2022-11-02T16:44:12.841Z,2.60
2022-11-02T16:46:50.633Z,1.95
2022-11-02T16:49:24.887Z,3.42
2022-11-02T16:52:00.308Z,2.25
2022-11-02T16:54:41.264Z,2.15
2022-11-02T16:57:19.387Z,2.00
2022-11-02T16:59:55.189Z,2.10
2022-11-02T17:02:35.972Z,2.55
2022-11-02T17:05:18.798Z,1.85
2022-11-02T17:08:00.377Z,2.08
2022-11-02T17:10:36.601Z,2.22
2022-11-02T17:13:21.885Z,2.22
2022-11-02T17:15:56.884Z,2.65
2022-11-02T17:18:30.301Z,2.05
2022-11-02T17:21:26.152Z,1.98
2022-11-02T17:24:00.758Z,2.15
2022-11-02T17:26:37.448Z,2.55
2022-11-02T17:29:33.079Z,2.03
2022-11-02T17:32:07.323Z,2.40
2022-11-02T17:34:40.715Z,2.35
2022-11-02T17:37:23.786Z,2.63
2022-11-02T17:40:01.507Z,2.10
2022-11-02T17:42:52.072Z,2.35
2022-11-02T17:45:28.378Z,2.40
2022-11-02T17:48:02.981Z,2.15
2022-11-02T17:50:38.260Z,2.95
2022-11-02T17:53:13.814Z,2.00
2022-11-02T17:55:47.969Z,2.95
2022-11-02T17:58:20.712Z,1.83
2022-11-02T18:00:54.727Z,1.88
2022-11-02T18:03:31.094Z,1.98
2022-11-02T18:06:04.615Z,2.03
2022-11-02T18:09:01.515Z,2.67
2022-11-02T18:11:35.876Z,2.60
2022-11-02T18:14:14.078Z,2.30
2022-11-02T18:16:47.867Z,2.15
2022-11-02T18:19:20.786Z,2.47
2022-11-02T18:21:54.067Z,2.00
2022-11-02T18:24:27.798Z,2.95
2022-11-02T18:27:01.828Z,2.13
2022-11-02T18:29:34.703Z,2.42
2022-11-02T18:32:07.522Z,2.90
2022-11-02T18:34:40.442Z,2.55
2022-11-02T18:37:13.156Z,2.00
2022-11-02T18:39:45.889Z,1.83
2022-11-02T18:42:20.399Z,2.13
2022-11-02T18:44:53.027Z,2.35
2022-11-02T18:47:26.100Z,2.65
2022-11-02T18:52:33.128Z,2.72
2022-11-02T18:55:06.763Z,2.78
2022-11-02T18:57:40.920Z,2.80
2022-11-02T19:00:14.738Z,2.97
2022-11-02T19:02:47.518Z,2.88
2022-11-02T19:05:38.154Z,2.85
2022-11-02T19:08:28.847Z,2.03
2022-11-02T19:11:01.704Z,2.60
2022-11-02T19:13:35.714Z,2.83
2022-11-02T19:16:08.870Z,3.03
2022-11-02T19:18:41.678Z,3.05
2022-11-02T19:21:14.596Z,2.67
2022-11-02T19:23:47.340Z,2.28
2022-11-02T19:26:20.012Z,3.10
2022-11-02T19:28:54.288Z,2.28
2022-11-02T19:31:27.125Z,2.40
2022-11-02T19:34:00.799Z,2.05
2022-11-02T19:36:33.788Z,2.70
2022-11-02T19:41:41.472Z,2.47
2022-11-02T19:44:15.540Z,2.50
2022-11-02T19:46:48.631Z,2.72
2022-11-02T19:51:54.118Z,2.53
2022-11-02T19:54:26.820Z,2.58
2022-11-02T19:56:59.721Z,2.78
2022-11-02T19:59:34.122Z,2.85
2022-11-02T20:02:06.790Z,3.63
2022-11-02T20:04:42.322Z,2.53
2022-11-02T20:07:15.452Z,2.95
2022-11-02T20:09:48.239Z,3.30
2022-11-02T20:12:21.008Z,1.92
2022-11-02T20:14:55.024Z,3.33
2022-11-02T20:17:41.891Z,2.92
2022-11-02T20:20:21.261Z,2.95
2022-11-02T20:25:28.764Z,2.60
2022-11-02T20:28:01.473Z,2.63
2022-11-02T20:30:35.611Z,2.78
2022-11-02T20:33:08.315Z,3.05
2022-11-02T20:35:44.767Z,2.80
2022-11-02T20:38:17.951Z,3.17
2022-11-02T20:40:50.687Z,2.90
2022-11-02T20:43:23.403Z,3.10
2022-11-02T20:46:31.480Z,2.60
2022-11-02T20:49:01.445Z,3.13
2022-11-02T20:51:41.933Z,3.25
2022-11-02T20:56:47.538Z,3.00
2022-11-02T20:59:20.373Z,3.90
2022-11-02T21:01:54.538Z,3.30
2022-11-02T21:04:27.392Z,3.78
2022-11-02T21:07:00.288Z,2.95
2022-11-02T21:09:33.078Z,3.00
2022-11-02T21:12:23.691Z,3.75
2022-11-02T21:14:56.445Z,3.85
2022-11-02T21:17:30.786Z,4.30
2022-11-02T21:20:28.476Z,3.00
2022-11-02T21:22:57.795Z,3.47
2022-11-02T21:25:30.677Z,3.53
2022-11-02T21:28:03.691Z,3.63
2022-11-02T21:33:10.369Z,3.00
2022-11-02T21:35:43.031Z,3.35
2022-11-02T21:38:15.761Z,4.13
2022-11-02T21:40:48.693Z,4.65
2022-11-02T21:43:21.535Z,2.92
2022-11-02T21:45:55.804Z,3.50
2022-11-02T21:48:32.472Z,3.63
2022-11-02T21:51:07.657Z,3.38
2022-11-02T21:53:42.051Z,3.08
2022-11-02T21:56:16.815Z,2.97
2022-11-02T21:58:50.242Z,2.50
2022-11-02T22:01:43.369Z,3.60
2022-11-02T22:04:21.800Z,3.30
2022-11-02T22:06:55.173Z,2.60
2022-11-02T22:09:28.624Z,3.17
2022-11-02T22:12:18.954Z,3.63
2022-11-02T22:14:52.955Z,3.15
2022-11-02T22:17:48.732Z,3.72
2022-11-02T22:20:19.868Z,3.65
2022-11-02T22:22:53.626Z,3.20
2022-11-02T22:25:26.415Z,3.00
2022-11-02T22:27:59.123Z,2.65
2022-11-02T22:30:32.105Z,3.00
2022-11-02T22:33:05.882Z,3.00
2022-11-02T22:35:40.167Z,4.15
2022-11-02T22:38:30.815Z,2.85
2022-11-02T22:41:04.215Z,3.47
2022-11-02T22:43:36.967Z,3.47
2022-11-02T22:46:10.877Z,3.83
2022-11-02T22:48:43.774Z,3.20
2022-11-02T22:51:19.089Z,3.25
2022-11-02T22:53:52.489Z,4.18
2022-11-02T22:56:25.219Z,3.40
2022-11-02T22:58:59.208Z,3.25
2022-11-02T23:01:33.455Z,3.13
2022-11-02T23:04:07.420Z,3.15
2022-11-02T23:06:41.700Z,3.13
2022-11-02T23:09:14.675Z,2.75
2022-11-02T23:11:47.429Z,3.47
2022-11-02T23:14:21.391Z,3.40
2022-11-02T23:16:57.111Z,3.45
2022-11-02T23:19:30.036Z,2.47
2022-11-02T23:22:23.829Z,3.13
2022-11-02T23:25:15.361Z,3.10
2022-11-02T23:28:12.660Z,2.45
2022-11-02T23:31:03.555Z,3.22
2022-11-02T23:33:36.791Z,3.63
2022-11-02T23:36:13.194Z,3.05
2022-11-02T23:39:06.906Z,3.88
2022-11-02T23:44:13.847Z,2.83
2022-11-02T23:46:49.735Z,3.30
2022-11-02T23:49:22.461Z,3.10
2022-11-02T23:52:13.051Z,2.65
2022-11-02T23:55:04.809Z,3.15
2022-11-02T23:57:37.552Z,3.67
